Azalea Ace — A8ZJ6 — position and weather

sailwx.info

Track history (hours):
 
Tides and Currents Weather Stations Pressure Air Temp Water Temp Dewpoint Dewpoint Depression Visibility Wind Speed Wind Dir Waves Ship Positions

Azalea Ace

Last reported at 2017-Dec-18 20:30 UTC. Time now 2017-Dec-18 20:49 UTC.
Position N 35°54' W 122°18'.

Length 180 m; draft 8.8 m.

Type: Cargo ship. MMSI: 636015228.

Date/timePositionNaut miles runAvg speedWind from/ knotsBaromVisibWave heightAir tempDewpointWater temp
2017-Dec-18 20:30N 35°54' W 122°18'713.3
2017-Dec-18 20:00N 36°00' W 122°21'713.1
2017-Dec-18 19:30N 36°06' W 122°24'613.1
2017-Dec-18 19:00N 36°12' W 122°28'613.0
2017-Dec-18 18:31N 36°18' W 122°31'612.9
2017-Dec-18 18:01N 36°24' W 122°35'712.7
2017-Dec-18 17:30N 36°30' W 122°38'612.7
2017-Dec-18 17:00N 36°35' W 122°41'612.7
2017-Dec-18 16:30N 36°41' W 122°44'713.1
2017-Dec-18 16:00N 36°47' W 122°48'612.9
2017-Dec-18 15:30N 36°53' W 122°52'713.0
2017-Dec-18 15:00N 36°59' W 122°55'713.5
2017-Dec-18 14:30N 37°05' W 122°58'713.3
2017-Dec-18 14:00N 37°11' W 123°02'713.1
2017-Dec-18 13:30N 37°17' W 123°04'713.2
2017-Dec-18 13:00N 37°24' W 123°06'612.6
2017-Dec-18 12:30N 37°30' W 123°06'611.2
2017-Dec-18 12:00N 37°35' W 123°03'612.7
2017-Dec-18 11:30N 37°38' W 122°56'612.6
2017-Dec-18 11:00N 37°42' W 122°49'612.6
2017-Dec-18 10:30N 37°45' W 122°43'510.4
2017-Dec-18 10:00N 37°47' W 122°36'815.9
2017-Dec-18 09:30N 37°50' W 122°27'510.6
2017-Dec-18 09:01N 37°55' W 122°25'3 5.3
2017-Dec-18 08:31N 37°54' W 122°22'0 0.8
2017-Dec-18 08:00N 37°54' W 122°22'0 0.0
2017-Dec-18 07:30N 37°54' W 122°22'0 0.0
2017-Dec-18 07:00N 37°54' W 122°22'0 0.0
2017-Dec-18 06:30N 37°54' W 122°22'0 0.0
2017-Dec-18 06:00N 37°54' W 122°22'0 0.0
2017-Dec-18 05:30N 37°54' W 122°22'0 0.0
2017-Dec-18 05:00N 37°54' W 122°22'0 0.0
2017-Dec-18 04:30N 37°54' W 122°22'0 0.0
2017-Dec-18 04:00N 37°54' W 122°22'0 0.0
2017-Dec-18 03:30N 37°54' W 122°22'0 0.0
2017-Dec-18 03:00N 37°54' W 122°22'0 0.0
2017-Dec-18 02:30N 37°54' W 122°22'0 0.0
2017-Dec-18 02:00N 37°54' W 122°22'0 0.0
2017-Dec-18 01:30N 37°54' W 122°22'0 0.0
2017-Dec-18 01:00N 37°54' W 122°22'0 0.0
2017-Dec-18 00:30N 37°54' W 122°22'0 0.4
2017-Dec-18 00:01N 37°54' W 122°22'3 6.0
2017-Dec-17 23:30N 37°55' W 122°25'4 9.0
2017-Dec-17 23:01N 37°51' W 122°26'612.9
2017-Dec-17 22:30N 37°47' W 122°33'612.2
2017-Dec-17 22:01N 37°46' W 122°41'5 9.3
2017-Dec-17 21:30N 37°47' W 122°46'5 9.4
2017-Dec-17 21:00N 37°49' W 122°52'5 9.7
2017-Dec-17 20:30N 37°51' W 122°57'5 9.7
2017-Dec-17 20:00N 37°54' W 123°02'5 9.9
2017-Dec-17 19:30N 37°56' W 123°08'5 9.6
2017-Dec-17 19:00N 37°59' W 123°12'5 9.8
2017-Dec-17 18:30N 38°03' W 123°16'611.3
2017-Dec-17 18:00N 38°07' W 123°21'611.2
2017-Dec-17 17:30N 38°12' W 123°25'3 6.1
2017-Dec-17 17:00N 38°14' W 123°28'612.7
2017-Dec-17 16:30N 38°19' W 123°33'612.7
2017-Dec-17 16:00N 38°24' W 123°37'612.9
2017-Dec-17 15:30N 38°30' W 123°42'713.2
2017-Dec-17 15:00N 38°35' W 123°47'713.1
2017-Dec-17 14:30N 38°40' W 123°53'613.1
2017-Dec-17 14:00N 38°45' W 123°58'712.9
2017-Dec-17 13:30N 38°51' W 124°02'39513.3
2017-Dec-16 07:43N 45°24' W 124°43'314.4
2017-Dec-16 07:30N 45°27' W 124°42'714.5
2017-Dec-16 07:01N 45°34' W 124°39'714.6
2017-Dec-16 06:30N 45°41' W 124°37'714.3
2017-Dec-16 06:01N 45°48' W 124°34'714.3
2017-Dec-16 05:31N 45°55' W 124°32'813.6
2017-Dec-16 04:55N 46°02' W 124°26'614.2
2017-Dec-16 04:31N 46°07' W 124°21'714.5
2017-Dec-16 04:01N 46°12' W 124°14'4 8.9
2017-Dec-16 03:31N 46°13' W 124°08'612.4
2017-Dec-16 03:00N 46°14' W 123°59'611.8
2017-Dec-16 02:30N 46°12' W 123°52'510.4
2017-Dec-16 02:01N 46°13' W 123°45'816.2
2017-Dec-16 01:30N 46°15' W 123°33'612.4
2017-Dec-16 01:00N 46°12' W 123°26'611.9
2017-Dec-16 00:31N 46°09' W 123°19'816.1
2017-Dec-16 00:01N 46°11' W 123°08'815.0
2017-Dec-15 23:30N 46°07' W 122°59'611.2
2017-Dec-15 22:57N 46°03' W 122°53'5 9.9
2017-Dec-15 22:28N 45°58' W 122°50'612.1
2017-Dec-15 21:58N 45°52' W 122°47'613.4
2017-Dec-15 21:31N 45°46' W 122°46'713.6
2017-Dec-15 21:00N 45°40' W 122°46'2 3.3
2017-Dec-15 20:31N 45°38' W 122°44'0 0.4
2017-Dec-15 19:58N 45°38' W 122°44'0 0.0
2017-Dec-15 19:28N 45°38' W 122°44'0 0.0
2017-Dec-15 18:55N 45°38' W 122°44'0 0.0
2017-Dec-15 18:28N 45°38' W 122°44'0 0.0
2017-Dec-15 17:58N 45°38' W 122°44'0 0.0
2017-Dec-15 17:22N 45°38' W 122°44'0 0.0
2017-Dec-15 16:55N 45°38' W 122°44'0 0.0
2017-Dec-15 16:28N 45°38' W 122°44'0 0.0
2017-Dec-15 15:52N 45°38' W 122°44'0 0.0
2017-Dec-15 15:28N 45°38' W 122°44'0 0.0
2017-Dec-15 14:52N 45°38' W 122°44'0 0.0
2017-Dec-15 14:16N 45°38' W 122°44'0 0.0
2017-Dec-15 13:31N 45°38' W 122°44'0 0.0
2017-Dec-15 13:19N 45°38' W 122°44'0 0.0
2017-Dec-15 12:19N 45°38' W 122°44'0 0.0
2017-Dec-15 11:58N 45°38' W 122°44'0 0.0
2017-Dec-15 11:25N 45°38' W 122°44'0 0.0
2017-Dec-15 10:55N 45°38' W 122°44'0 0.0
2017-Dec-15 10:28N 45°38' W 122°44'0 0.0
2017-Dec-15 09:52N 45°38' W 122°44'0 0.0
2017-Dec-15 09:16N 45°38' W 122°44'0 0.0
2017-Dec-15 08:58N 45°38' W 122°44'0 0.0
2017-Dec-15 08:28N 45°38' W 122°44'0 0.0
2017-Dec-15 07:55N 45°38' W 122°44'0 0.0
2017-Dec-15 07:22N 45°38' W 122°44'0 0.0
2017-Dec-15 06:58N 45°38' W 122°44'1 1.3
2017-Dec-15 06:30N 45°38' W 122°45'4 7.6
2017-Dec-15 06:00N 45°42' W 122°46'713.0
2017-Dec-15 05:26N 45°50' W 122°48'512.9
2017-Dec-15 05:00N 45°55' W 122°49'611.5
2017-Dec-15 04:30N 46°00' W 122°51'510.1
2017-Dec-15 04:01N 46°05' W 122°54'1610.5
2017-Dec-15 02:30N 46°09' W 123°16'14 9.5
2017-Dec-15 01:01N 46°15' W 123°35'612.3
2017-Dec-15 00:31N 46°14' W 123°43'41 6.9
2017-Dec-14 18:31N 46°30' W 124°38'612.4
2017-Dec-14 18:01N 46°36' W 124°43'612.7
2017-Dec-14 17:31N 46°41' W 124°48'612.4
2017-Dec-14 17:01N 46°47' W 124°51'612.1
2017-Dec-14 16:30N 46°53' W 124°54'612.1
2017-Dec-14 16:01N 46°58' W 124°56'1211.6
2017-Dec-14 15:00N 47°09' W 125°02'611.9
2017-Dec-14 14:31N 47°15' W 125°05'612.0
2017-Dec-14 14:00N 47°21' W 125°07'612.2
2017-Dec-14 13:30N 47°27' W 125°10'612.3
2017-Dec-14 13:00N 47°32' W 125°13'612.4
2017-Dec-14 12:30N 47°38' W 125°16'812.8
2017-Dec-14 11:54N 47°46' W 125°20'612.9
2017-Dec-14 11:27N 47°51' W 125°22'512.3
2017-Dec-14 11:01N 47°57' W 125°23'612.5
2017-Dec-14 10:31N 48°03' W 125°21'612.6
2017-Dec-14 10:01N 48°09' W 125°19'612.6
2017-Dec-14 09:31N 48°15' W 125°15'612.6
2017-Dec-14 09:00N 48°20' W 125°11'611.8
2017-Dec-14 08:30N 48°26' W 125°07'612.1
2017-Dec-14 08:01N 48°30' W 125°01'611.5
2017-Dec-14 07:29N 48°31' W 124°52'611.8
2017-Dec-14 07:00N 48°31' W 124°43'612.4
2017-Dec-14 06:31N 48°28' W 124°35'612.9
2017-Dec-14 06:00N 48°26' W 124°26'612.8
2017-Dec-14 05:30N 48°23' W 124°17'612.9
2017-Dec-14 05:01N 48°21' W 124°08'713.4
2017-Dec-14 04:30N 48°18' W 123°59'714.3
2017-Dec-14 04:00N 48°17' W 123°48'814.7
2017-Dec-14 03:30N 48°16' W 123°37'612.7
2017-Dec-14 03:00N 48°18' W 123°28'612.1
2017-Dec-14 02:30N 48°23' W 123°23'612.1
2017-Dec-14 02:00N 48°24' W 123°14'1019.9
2017-Dec-14 01:30N 48°34' W 123°13'918.2
2017-Dec-14 01:00N 48°43' W 123°12'918.0
2017-Dec-14 00:30N 48°49' W 123°01'1019.2
2017-Dec-14 00:01N 48°56' W 123°11'917.3
2017-Dec-13 23:30N 49°02' W 123°20'511.0
2017-Dec-13 23:00N 49°07' W 123°16'510.7
2017-Dec-13 22:30N 49°06' W 123°08'510.7
2017-Dec-13 22:00N 49°09' W 123°01'4 8.0
2017-Dec-13 21:30N 49°11' W 122°55'0 0.5
2017-Dec-13 20:59N 49°11' W 122°55'0 0.0
2017-Dec-13 20:29N 49°11' W 122°55'0 0.0
2017-Dec-13 19:47N 49°11' W 122°55'0 0.0
2017-Dec-13 19:29N 49°11' W 122°55'0 0.0
2017-Dec-13 18:59N 49°11' W 122°55'0 0.0
2017-Dec-13 18:29N 49°11' W 122°55'0 0.0
2017-Dec-13 17:53N 49°11' W 122°55'0 0.0
2017-Dec-13 17:29N 49°11' W 122°55'0 0.0
2017-Dec-13 16:53N 49°11' W 122°55'0 0.0
2017-Dec-13 16:29N 49°11' W 122°55'0 0.0
2017-Dec-13 15:59N 49°11' W 122°55'0 0.0
2017-Dec-13 14:59N 49°11' W 122°55'0 0.0
2017-Dec-13 14:29N 49°11' W 122°55'0 0.0
2017-Dec-13 13:59N 49°11' W 122°55'0 0.3
2017-Dec-13 13:30N 49°11' W 122°55'3 6.8
2017-Dec-13 13:00N 49°09' W 122°60'510.6
2017-Dec-13 12:30N 49°07' W 123°07'611.1
2017-Dec-13 12:00N 49°08' W 123°15'510.3
2017-Dec-13 11:30N 49°04' W 123°21'5 9.8
2017-Dec-13 11:00N 49°01' W 123°16'815.9
2017-Dec-13 10:30N 48°56' W 123°07'917.1
2017-Dec-13 10:00N 48°48' W 122°60'917.1
2017-Dec-13 09:30N 48°43' W 123°10'713.7
2017-Dec-13 09:00N 48°37' W 123°13'917.6
2017-Dec-13 08:30N 48°28' W 123°10'815.6
2017-Dec-13 08:00N 48°22' W 123°18'5 9.1
2017-Dec-13 07:31N 48°20' W 123°24'3 5.7
2017-Dec-13 07:01N 48°17' W 123°25'3 6.6
2017-Dec-13 06:31N 48°14' W 123°27'2 4.8
2017-Dec-13 06:00N 48°12' W 123°25'3 6.2
2017-Dec-13 05:30N 48°10' W 123°22'3 6.9
2017-Dec-13 05:00N 48°10' W 123°17'917.2
2017-Dec-13 04:30N 48°13' W 123°05'917.5
2017-Dec-13 04:00N 48°12' W 122°52'917.1
2017-Dec-13 03:29N 48°07' W 122°40'918.1
2017-Dec-13 03:00N 47°59' W 122°35'917.4
2017-Dec-13 02:30N 47°52' W 122°28'917.5
2017-Dec-13 02:00N 47°43' W 122°27'917.5
2017-Dec-13 01:30N 47°35' W 122°26'917.4
2017-Dec-13 01:00N 47°26' W 122°23'713.7
2017-Dec-13 00:30N 47°20' W 122°26'4 7.0
2017-Dec-13 00:00N 47°16' W 122°24'1 2.3
2017-Dec-12 23:30N 47°16' W 122°23'0 0.0
2017-Dec-12 22:54N 47°16' W 122°23'0 0.0
2017-Dec-12 22:29N 47°16' W 122°23'0 0.0
2017-Dec-12 21:36N 47°16' W 122°23'0 0.0
2017-Dec-12 21:29N 47°16' W 122°23'0 0.0
2017-Dec-12 21:00N 47°16' W 122°23'0 0.0
2017-Dec-12 20:30N 47°16' W 122°23'0 0.0
2017-Dec-12 14:11N 47°16' W 122°23'0 0.0
2017-Dec-12 13:57N 47°16' W 122°23'0 0.0
2017-Dec-12 12:17N 47°16' W 122°23'0 0.6
2017-Dec-12 12:00N 47°15' W 122°23'1 2.5
2017-Dec-12 11:30N 47°16' W 122°24'3 5.3
2017-Dec-12 11:01N 47°18' W 122°27'510.5
2017-Dec-12 10:30N 47°22' W 122°23'815.9
2017-Dec-12 10:00N 47°30' W 122°26'917.2
2017-Dec-12 09:30N 47°38' W 122°28'816.7
2017-Dec-12 09:00N 47°47' W 122°27'917.2
2017-Dec-12 08:30N 47°55' W 122°30'916.9
2017-Dec-12 07:58N 48°02' W 122°39'816.8
2017-Dec-12 07:29N 48°09' W 122°45'816.8
2017-Dec-12 07:00N 48°11' W 122°56'817.0
2017-Dec-12 06:30N 48°12' W 123°09'815.4
2017-Dec-12 06:00N 48°10' W 123°21'5 9.2
2017-Dec-12 05:30N 48°11' W 123°27'4 7.8
2017-Dec-12 04:58N 48°13' W 123°33'4 8.7
2017-Dec-12 04:30N 48°13' W 123°39'510.0
2017-Dec-12 03:59N 48°13' W 123°47'4 9.0
2017-Dec-12 03:30N 48°13' W 123°53'5 9.2
2017-Dec-12 03:00N 48°15' W 123°60'511.0
2017-Dec-12 02:30N 48°17' W 124°07'610.9
2017-Dec-12 02:00N 48°19' W 124°15'611.7
2017-Dec-12 01:30N 48°22' W 124°23'611.1
2017-Dec-12 01:00N 48°24' W 124°30'611.0
2017-Dec-12 00:30N 48°27' W 124°38'510.6
2017-Dec-12 00:00N 48°29' W 124°45'611.4
2017-Dec-11 23:30N 48°29' W 124°54'611.1
2017-Dec-11 23:00N 48°29' W 125°02'611.2
2017-Dec-11 22:30N 48°29' W 125°10'611.8
2017-Dec-11 22:00N 48°29' W 125°19'611.9
2017-Dec-11 21:30N 48°28' W 125°28'612.0
2017-Dec-11 21:00N 48°28' W 125°37'611.7
2017-Dec-11 20:30N 48°28' W 125°46'611.6
2017-Dec-11 20:00N 48°28' W 125°55'611.5
2017-Dec-11 19:30N 48°28' W 126°04'611.7
2017-Dec-11 19:00N 48°28' W 126°12'611.5
2017-Dec-11 18:30N 48°29' W 126°21'611.6
2017-Dec-11 18:00N 48°29' W 126°30'611.6
2017-Dec-11 17:30N 48°29' W 126°39'4 7.3
2017-Dec-11 17:01N 48°29' W 126°44'611.6
2017-Dec-11 16:30N 48°29' W 126°53'612.2
2017-Dec-11 16:01N 48°29' W 127°02'611.7
2017-Dec-11 15:30N 48°29' W 127°11'611.9
2017-Dec-11 15:00N 48°29' W 127°20'612.0
2017-Dec-11 14:30N 48°29' W 127°29'1712.0
2017-Dec-11 13:05N 48°29' W 127°54'112.2
2017-Dec-11 13:00N 48°29' W 127°56'612.0
2017-Dec-11 12:30N 48°29' W 128°05'612.0
2017-Dec-11 12:00N 48°29' W 128°14'612.1
2017-Dec-11 11:30N 48°29' W 128°23'612.3
2017-Dec-11 11:00N 48°29' W 128°32'612.1
2017-Dec-11 10:30N 48°29' W 128°41'612.3
2017-Dec-11 10:01N 48°29' W 128°51'612.7
2017-Dec-11 09:30N 48°29' W 129°00'612.8
2017-Dec-11 09:00N 48°30' W 129°10'613.0
2017-Dec-11 08:30N 48°29' W 129°20'612.9
2017-Dec-11 08:01N 48°28' W 129°29'612.7
2017-Dec-11 07:30N 48°28' W 129°39'612.6
2017-Dec-11 07:00N 48°28' W 129°49'612.4
2017-Dec-11 06:30N 48°28' W 129°58'612.2
2017-Dec-11 06:00N 48°28' W 130°07'612.3
2017-Dec-11 05:30N 48°29' W 130°16'612.1
2017-Dec-11 05:00N 48°29' W 130°25'612.1
2017-Dec-11 04:30N 48°29' W 130°35'712.4
2017-Dec-11 03:58N 48°29' W 130°45'612.6
2017-Dec-11 03:29N 48°29' W 130°54'612.5
2017-Dec-11 03:00N 48°30' W 131°03'612.5
2017-Dec-11 02:30N 48°30' W 131°12'612.6
2017-Dec-11 02:00N 48°30' W 131°22'712.5
2017-Dec-11 01:28N 48°30' W 131°32'  
Track history (hours):
 
Tides and Currents Weather Stations Pressure Air Temp Water Temp Dewpoint Dewpoint Depression Visibility Wind Speed Wind Dir Waves Ship Positions

Azalea Ace

Last reported at 2017-Dec-18 20:30 UTC. Time now 2017-Dec-18 20:49 UTC.
Position N 35°54' W 122°18'.

Length 180 m; draft 8.8 m.

Type: Cargo ship. MMSI: 636015228.

Date/timePositionNaut miles runAvg speedWind from/ knotsBaromVisibWave heightAir tempDewpointWater temp
2017-Dec-18 20:30N 35°54' W 122°18'713.3
2017-Dec-18 20:00N 36°00' W 122°21'713.1
2017-Dec-18 19:30N 36°06' W 122°24'613.1
2017-Dec-18 19:00N 36°12' W 122°28'613.0
2017-Dec-18 18:31N 36°18' W 122°31'612.9
2017-Dec-18 18:01N 36°24' W 122°35'712.7
2017-Dec-18 17:30N 36°30' W 122°38'612.7
2017-Dec-18 17:00N 36°35' W 122°41'612.7
2017-Dec-18 16:30N 36°41' W 122°44'713.1
2017-Dec-18 16:00N 36°47' W 122°48'612.9
2017-Dec-18 15:30N 36°53' W 122°52'713.0
2017-Dec-18 15:00N 36°59' W 122°55'713.5
2017-Dec-18 14:30N 37°05' W 122°58'713.3
2017-Dec-18 14:00N 37°11' W 123°02'713.1
2017-Dec-18 13:30N 37°17' W 123°04'713.2
2017-Dec-18 13:00N 37°24' W 123°06'612.6
2017-Dec-18 12:30N 37°30' W 123°06'611.2
2017-Dec-18 12:00N 37°35' W 123°03'612.7
2017-Dec-18 11:30N 37°38' W 122°56'612.6
2017-Dec-18 11:00N 37°42' W 122°49'612.6
2017-Dec-18 10:30N 37°45' W 122°43'510.4
2017-Dec-18 10:00N 37°47' W 122°36'815.9
2017-Dec-18 09:30N 37°50' W 122°27'510.6
2017-Dec-18 09:01N 37°55' W 122°25'3 5.3
2017-Dec-18 08:31N 37°54' W 122°22'0 0.8
2017-Dec-18 08:00N 37°54' W 122°22'0 0.0
2017-Dec-18 07:30N 37°54' W 122°22'0 0.0
2017-Dec-18 07:00N 37°54' W 122°22'0 0.0
2017-Dec-18 06:30N 37°54' W 122°22'0 0.0
2017-Dec-18 06:00N 37°54' W 122°22'0 0.0
2017-Dec-18 05:30N 37°54' W 122°22'0 0.0
2017-Dec-18 05:00N 37°54' W 122°22'0 0.0
2017-Dec-18 04:30N 37°54' W 122°22'0 0.0
2017-Dec-18 04:00N 37°54' W 122°22'0 0.0
2017-Dec-18 03:30N 37°54' W 122°22'0 0.0
2017-Dec-18 03:00N 37°54' W 122°22'0 0.0
2017-Dec-18 02:30N 37°54' W 122°22'0 0.0
2017-Dec-18 02:00N 37°54' W 122°22'0 0.0
2017-Dec-18 01:30N 37°54' W 122°22'0 0.0
2017-Dec-18 01:00N 37°54' W 122°22'0 0.0
2017-Dec-18 00:30N 37°54' W 122°22'0 0.4
2017-Dec-18 00:01N 37°54' W 122°22'3 6.0
2017-Dec-17 23:30N 37°55' W 122°25'4 9.0
2017-Dec-17 23:01N 37°51' W 122°26'612.9
2017-Dec-17 22:30N 37°47' W 122°33'612.2
2017-Dec-17 22:01N 37°46' W 122°41'5 9.3
2017-Dec-17 21:30N 37°47' W 122°46'5 9.4
2017-Dec-17 21:00N 37°49' W 122°52'5 9.7
2017-Dec-17 20:30N 37°51' W 122°57'5 9.7
2017-Dec-17 20:00N 37°54' W 123°02'5 9.9
2017-Dec-17 19:30N 37°56' W 123°08'5 9.6
2017-Dec-17 19:00N 37°59' W 123°12'5 9.8
2017-Dec-17 18:30N 38°03' W 123°16'611.3
2017-Dec-17 18:00N 38°07' W 123°21'611.2
2017-Dec-17 17:30N 38°12' W 123°25'3 6.1
2017-Dec-17 17:00N 38°14' W 123°28'612.7
2017-Dec-17 16:30N 38°19' W 123°33'612.7
2017-Dec-17 16:00N 38°24' W 123°37'612.9
2017-Dec-17 15:30N 38°30' W 123°42'713.2
2017-Dec-17 15:00N 38°35' W 123°47'713.1
2017-Dec-17 14:30N 38°40' W 123°53'613.1
2017-Dec-17 14:00N 38°45' W 123°58'712.9
2017-Dec-17 13:30N 38°51' W 124°02'39513.3
2017-Dec-16 07:43N 45°24' W 124°43'314.4
2017-Dec-16 07:30N 45°27' W 124°42'714.5
2017-Dec-16 07:01N 45°34' W 124°39'714.6
2017-Dec-16 06:30N 45°41' W 124°37'714.3
2017-Dec-16 06:01N 45°48' W 124°34'714.3
2017-Dec-16 05:31N 45°55' W 124°32'813.6
2017-Dec-16 04:55N 46°02' W 124°26'614.2
2017-Dec-16 04:31N 46°07' W 124°21'714.5
2017-Dec-16 04:01N 46°12' W 124°14'4 8.9
2017-Dec-16 03:31N 46°13' W 124°08'612.4
2017-Dec-16 03:00N 46°14' W 123°59'611.8
2017-Dec-16 02:30N 46°12' W 123°52'510.4
2017-Dec-16 02:01N 46°13' W 123°45'816.2
2017-Dec-16 01:30N 46°15' W 123°33'612.4
2017-Dec-16 01:00N 46°12' W 123°26'611.9
2017-Dec-16 00:31N 46°09' W 123°19'816.1
2017-Dec-16 00:01N 46°11' W 123°08'815.0
2017-Dec-15 23:30N 46°07' W 122°59'611.2
2017-Dec-15 22:57N 46°03' W 122°53'5 9.9
2017-Dec-15 22:28N 45°58' W 122°50'612.1
2017-Dec-15 21:58N 45°52' W 122°47'613.4
2017-Dec-15 21:31N 45°46' W 122°46'713.6
2017-Dec-15 21:00N 45°40' W 122°46'2 3.3
2017-Dec-15 20:31N 45°38' W 122°44'0 0.4
2017-Dec-15 19:58N 45°38' W 122°44'0 0.0
2017-Dec-15 19:28N 45°38' W 122°44'0 0.0
2017-Dec-15 18:55N 45°38' W 122°44'0 0.0
2017-Dec-15 18:28N 45°38' W 122°44'0 0.0
2017-Dec-15 17:58N 45°38' W 122°44'0 0.0
2017-Dec-15 17:22N 45°38' W 122°44'0 0.0
2017-Dec-15 16:55N 45°38' W 122°44'0 0.0
2017-Dec-15 16:28N 45°38' W 122°44'0 0.0
2017-Dec-15 15:52N 45°38' W 122°44'0 0.0
2017-Dec-15 15:28N 45°38' W 122°44'0 0.0
2017-Dec-15 14:52N 45°38' W 122°44'0 0.0
2017-Dec-15 14:16N 45°38' W 122°44'0 0.0
2017-Dec-15 13:31N 45°38' W 122°44'0 0.0
2017-Dec-15 13:19N 45°38' W 122°44'0 0.0
2017-Dec-15 12:19N 45°38' W 122°44'0 0.0
2017-Dec-15 11:58N 45°38' W 122°44'0 0.0
2017-Dec-15 11:25N 45°38' W 122°44'0 0.0
2017-Dec-15 10:55N 45°38' W 122°44'0 0.0
2017-Dec-15 10:28N 45°38' W 122°44'0 0.0
2017-Dec-15 09:52N 45°38' W 122°44'0 0.0
2017-Dec-15 09:16N 45°38' W 122°44'0 0.0
2017-Dec-15 08:58N 45°38' W 122°44'0 0.0
2017-Dec-15 08:28N 45°38' W 122°44'0 0.0
2017-Dec-15 07:55N 45°38' W 122°44'0 0.0
2017-Dec-15 07:22N 45°38' W 122°44'0 0.0
2017-Dec-15 06:58N 45°38' W 122°44'1 1.3
2017-Dec-15 06:30N 45°38' W 122°45'4 7.6
2017-Dec-15 06:00N 45°42' W 122°46'713.0
2017-Dec-15 05:26N 45°50' W 122°48'512.9
2017-Dec-15 05:00N 45°55' W 122°49'611.5
2017-Dec-15 04:30N 46°00' W 122°51'510.1
2017-Dec-15 04:01N 46°05' W 122°54'1610.5
2017-Dec-15 02:30N 46°09' W 123°16'14 9.5
2017-Dec-15 01:01N 46°15' W 123°35'612.3
2017-Dec-15 00:31N 46°14' W 123°43'41 6.9
2017-Dec-14 18:31N 46°30' W 124°38'612.4
2017-Dec-14 18:01N 46°36' W 124°43'612.7
2017-Dec-14 17:31N 46°41' W 124°48'612.4
2017-Dec-14 17:01N 46°47' W 124°51'612.1
2017-Dec-14 16:30N 46°53' W 124°54'612.1
2017-Dec-14 16:01N 46°58' W 124°56'1211.6
2017-Dec-14 15:00N 47°09' W 125°02'611.9
2017-Dec-14 14:31N 47°15' W 125°05'612.0
2017-Dec-14 14:00N 47°21' W 125°07'612.2
2017-Dec-14 13:30N 47°27' W 125°10'612.3
2017-Dec-14 13:00N 47°32' W 125°13'612.4
2017-Dec-14 12:30N 47°38' W 125°16'812.8
2017-Dec-14 11:54N 47°46' W 125°20'612.9
2017-Dec-14 11:27N 47°51' W 125°22'512.3
2017-Dec-14 11:01N 47°57' W 125°23'612.5
2017-Dec-14 10:31N 48°03' W 125°21'612.6
2017-Dec-14 10:01N 48°09' W 125°19'612.6
2017-Dec-14 09:31N 48°15' W 125°15'612.6
2017-Dec-14 09:00N 48°20' W 125°11'611.8
2017-Dec-14 08:30N 48°26' W 125°07'612.1
2017-Dec-14 08:01N 48°30' W 125°01'611.5
2017-Dec-14 07:29N 48°31' W 124°52'611.8
2017-Dec-14 07:00N 48°31' W 124°43'612.4
2017-Dec-14 06:31N 48°28' W 124°35'612.9
2017-Dec-14 06:00N 48°26' W 124°26'612.8
2017-Dec-14 05:30N 48°23' W 124°17'612.9
2017-Dec-14 05:01N 48°21' W 124°08'713.4
2017-Dec-14 04:30N 48°18' W 123°59'714.3
2017-Dec-14 04:00N 48°17' W 123°48'814.7
2017-Dec-14 03:30N 48°16' W 123°37'612.7
2017-Dec-14 03:00N 48°18' W 123°28'612.1
2017-Dec-14 02:30N 48°23' W 123°23'612.1
2017-Dec-14 02:00N 48°24' W 123°14'1019.9
2017-Dec-14 01:30N 48°34' W 123°13'918.2
2017-Dec-14 01:00N 48°43' W 123°12'918.0
2017-Dec-14 00:30N 48°49' W 123°01'1019.2
2017-Dec-14 00:01N 48°56' W 123°11'917.3
2017-Dec-13 23:30N 49°02' W 123°20'511.0
2017-Dec-13 23:00N 49°07' W 123°16'510.7
2017-Dec-13 22:30N 49°06' W 123°08'510.7
2017-Dec-13 22:00N 49°09' W 123°01'4 8.0
2017-Dec-13 21:30N 49°11' W 122°55'0 0.5
2017-Dec-13 20:59N 49°11' W 122°55'0 0.0
2017-Dec-13 20:29N 49°11' W 122°55'0 0.0
2017-Dec-13 19:47N 49°11' W 122°55'0 0.0
2017-Dec-13 19:29N 49°11' W 122°55'0 0.0
2017-Dec-13 18:59N 49°11' W 122°55'0 0.0
2017-Dec-13 18:29N 49°11' W 122°55'0 0.0
2017-Dec-13 17:53N 49°11' W 122°55'0 0.0
2017-Dec-13 17:29N 49°11' W 122°55'0 0.0
2017-Dec-13 16:53N 49°11' W 122°55'0 0.0
2017-Dec-13 16:29N 49°11' W 122°55'0 0.0
2017-Dec-13 15:59N 49°11' W 122°55'0 0.0
2017-Dec-13 14:59N 49°11' W 122°55'0 0.0
2017-Dec-13 14:29N 49°11' W 122°55'0 0.0
2017-Dec-13 13:59N 49°11' W 122°55'0 0.3
2017-Dec-13 13:30N 49°11' W 122°55'3 6.8
2017-Dec-13 13:00N 49°09' W 122°60'510.6
2017-Dec-13 12:30N 49°07' W 123°07'611.1
2017-Dec-13 12:00N 49°08' W 123°15'510.3
2017-Dec-13 11:30N 49°04' W 123°21'5 9.8
2017-Dec-13 11:00N 49°01' W 123°16'815.9
2017-Dec-13 10:30N 48°56' W 123°07'917.1
2017-Dec-13 10:00N 48°48' W 122°60'917.1
2017-Dec-13 09:30N 48°43' W 123°10'713.7
2017-Dec-13 09:00N 48°37' W 123°13'917.6
2017-Dec-13 08:30N 48°28' W 123°10'815.6
2017-Dec-13 08:00N 48°22' W 123°18'5 9.1
2017-Dec-13 07:31N 48°20' W 123°24'3 5.7
2017-Dec-13 07:01N 48°17' W 123°25'3 6.6
2017-Dec-13 06:31N 48°14' W 123°27'2 4.8
2017-Dec-13 06:00N 48°12' W 123°25'3 6.2
2017-Dec-13 05:30N 48°10' W 123°22'3 6.9
2017-Dec-13 05:00N 48°10' W 123°17'917.2
2017-Dec-13 04:30N 48°13' W 123°05'917.5
2017-Dec-13 04:00N 48°12' W 122°52'917.1
2017-Dec-13 03:29N 48°07' W 122°40'918.1
2017-Dec-13 03:00N 47°59' W 122°35'917.4
2017-Dec-13 02:30N 47°52' W 122°28'917.5
2017-Dec-13 02:00N 47°43' W 122°27'917.5
2017-Dec-13 01:30N 47°35' W 122°26'917.4
2017-Dec-13 01:00N 47°26' W 122°23'713.7
2017-Dec-13 00:30N 47°20' W 122°26'4 7.0
2017-Dec-13 00:00N 47°16' W 122°24'1 2.3
2017-Dec-12 23:30N 47°16' W 122°23'0 0.0
2017-Dec-12 22:54N 47°16' W 122°23'0 0.0
2017-Dec-12 22:29N 47°16' W 122°23'0 0.0
2017-Dec-12 21:36N 47°16' W 122°23'0 0.0
2017-Dec-12 21:29N 47°16' W 122°23'0 0.0
2017-Dec-12 21:00N 47°16' W 122°23'0 0.0
2017-Dec-12 20:30N 47°16' W 122°23'0 0.0
2017-Dec-12 14:11N 47°16' W 122°23'0 0.0
2017-Dec-12 13:57N 47°16' W 122°23'0 0.0
2017-Dec-12 12:17N 47°16' W 122°23'0 0.6
2017-Dec-12 12:00N 47°15' W 122°23'1 2.5
2017-Dec-12 11:30N 47°16' W 122°24'3 5.3
2017-Dec-12 11:01N 47°18' W 122°27'510.5
2017-Dec-12 10:30N 47°22' W 122°23'815.9
2017-Dec-12 10:00N 47°30' W 122°26'917.2
2017-Dec-12 09:30N 47°38' W 122°28'816.7
2017-Dec-12 09:00N 47°47' W 122°27'917.2
2017-Dec-12 08:30N 47°55' W 122°30'916.9
2017-Dec-12 07:58N 48°02' W 122°39'816.8
2017-Dec-12 07:29N 48°09' W 122°45'816.8
2017-Dec-12 07:00N 48°11' W 122°56'817.0
2017-Dec-12 06:30N 48°12' W 123°09'815.4
2017-Dec-12 06:00N 48°10' W 123°21'5 9.2
2017-Dec-12 05:30N 48°11' W 123°27'4 7.8
2017-Dec-12 04:58N 48°13' W 123°33'4 8.7
2017-Dec-12 04:30N 48°13' W 123°39'510.0
2017-Dec-12 03:59N 48°13' W 123°47'4 9.0
2017-Dec-12 03:30N 48°13' W 123°53'5 9.2
2017-Dec-12 03:00N 48°15' W 123°60'511.0
2017-Dec-12 02:30N 48°17' W 124°07'610.9
2017-Dec-12 02:00N 48°19' W 124°15'611.7
2017-Dec-12 01:30N 48°22' W 124°23'611.1
2017-Dec-12 01:00N 48°24' W 124°30'611.0
2017-Dec-12 00:30N 48°27' W 124°38'510.6
2017-Dec-12 00:00N 48°29' W 124°45'611.4
2017-Dec-11 23:30N 48°29' W 124°54'611.1
2017-Dec-11 23:00N 48°29' W 125°02'611.2
2017-Dec-11 22:30N 48°29' W 125°10'611.8
2017-Dec-11 22:00N 48°29' W 125°19'611.9
2017-Dec-11 21:30N 48°28' W 125°28'612.0
2017-Dec-11 21:00N 48°28' W 125°37'611.7
2017-Dec-11 20:30N 48°28' W 125°46'611.6
2017-Dec-11 20:00N 48°28' W 125°55'611.5
2017-Dec-11 19:30N 48°28' W 126°04'611.7
2017-Dec-11 19:00N 48°28' W 126°12'611.5
2017-Dec-11 18:30N 48°29' W 126°21'611.6
2017-Dec-11 18:00N 48°29' W 126°30'611.6
2017-Dec-11 17:30N 48°29' W 126°39'4 7.3
2017-Dec-11 17:01N 48°29' W 126°44'611.6
2017-Dec-11 16:30N 48°29' W 126°53'612.2
2017-Dec-11 16:01N 48°29' W 127°02'611.7
2017-Dec-11 15:30N 48°29' W 127°11'611.9
2017-Dec-11 15:00N 48°29' W 127°20'612.0
2017-Dec-11 14:30N 48°29' W 127°29'1712.0
2017-Dec-11 13:05N 48°29' W 127°54'112.2
2017-Dec-11 13:00N 48°29' W 127°56'612.0
2017-Dec-11 12:30N 48°29' W 128°05'612.0
2017-Dec-11 12:00N 48°29' W 128°14'612.1
2017-Dec-11 11:30N 48°29' W 128°23'612.3
2017-Dec-11 11:00N 48°29' W 128°32'612.1
2017-Dec-11 10:30N 48°29' W 128°41'612.3
2017-Dec-11 10:01N 48°29' W 128°51'612.7
2017-Dec-11 09:30N 48°29' W 129°00'612.8
2017-Dec-11 09:00N 48°30' W 129°10'613.0
2017-Dec-11 08:30N 48°29' W 129°20'612.9
2017-Dec-11 08:01N 48°28' W 129°29'612.7
2017-Dec-11 07:30N 48°28' W 129°39'612.6
2017-Dec-11 07:00N 48°28' W 129°49'612.4
2017-Dec-11 06:30N 48°28' W 129°58'612.2
2017-Dec-11 06:00N 48°28' W 130°07'612.3
2017-Dec-11 05:30N 48°29' W 130°16'612.1
2017-Dec-11 05:00N 48°29' W 130°25'612.1
2017-Dec-11 04:30N 48°29' W 130°35'712.4
2017-Dec-11 03:58N 48°29' W 130°45'612.6
2017-Dec-11 03:29N 48°29' W 130°54'612.5
2017-Dec-11 03:00N 48°30' W 131°03'612.5
2017-Dec-11 02:30N 48°30' W 131°12'612.6
2017-Dec-11 02:00N 48°30' W 131°22'712.5
2017-Dec-11 01:28N 48°30' W 131°32'  

Dump ship's entire track history